Selah, Washington
Current Conditions -  °F | °C
As of 9:56 PM on Saturday 22 Nov 2014 (Local Time) from K1YT Reporting Station
Clear Clear  
Wind Chill:   Ceiling: Unl
Heat Index:   Visibility: 10mi
Dew Point: -2°   Wind: 1mph
Humidity: 90%   Direction: NA
Pressure: 30.05"   Gusts: NA
Location:  46.65°N, 120.53°W
Report Text: K1YT 230556Z AUTO VRB01KT 10SM CLR 00/M02 A3005 RMK AO2 SLPNO T10011016 10062 21001 52024
Loading
Personal Weather Stations






























Interactive Weather Map New forecast layout! Learn more

10-Day Weather Forecast

Advertisements
Track Severe Weather on mobile